sensor_id;sensor_type;location;lat;lon;timestamp;P1;durP1;ratioP1;P2;durP2;ratioP2
16308;SDS011;8263;48.880;9.276;2023-05-24T00:01:20;121.50;;;113.30;;
16308;SDS011;8263;48.880;9.276;2023-05-24T00:03:49;121.13;;;112.93;;
16308;SDS011;8263;48.880;9.276;2023-05-24T00:06:16;120.07;;;112.00;;
16308;SDS011;8263;48.880;9.276;2023-05-24T00:08:42;119.85;;;111.82;;
16308;SDS011;8263;48.880;9.276;2023-05-24T00:11:09;120.05;;;111.88;;
16308;SDS011;8263;48.880;9.276;2023-05-24T00:13:36;122.20;;;113.90;;
16308;SDS011;8263;48.880;9.276;2023-05-24T00:16:04;120.53;;;112.43;;
16308;SDS011;8263;48.880;9.276;2023-05-24T00:18:31;120.95;;;112.72;;
16308;SDS011;8263;48.880;9.276;2023-05-24T00:20:57;121.80;;;113.60;;
16308;SDS011;8263;48.880;9.276;2023-05-24T00:23:24;119.65;;;111.60;;
16308;SDS011;8263;48.880;9.276;2023-05-24T00:25:50;121.93;;;113.65;;
16308;SDS011;8263;48.880;9.276;2023-05-24T00:28:17;123.15;;;114.53;;
16308;SDS011;8263;48.880;9.276;2023-05-24T00:30:43;123.35;;;114.97;;
16308;SDS011;8263;48.880;9.276;2023-05-24T00:33:11;122.38;;;114.15;;
16308;SDS011;8263;48.880;9.276;2023-05-24T00:35:37;122.57;;;114.25;;
16308;SDS011;8263;48.880;9.276;2023-05-24T00:38:04;123.22;;;114.72;;
16308;SDS011;8263;48.880;9.276;2023-05-24T00:40:30;122.85;;;114.15;;
16308;SDS011;8263;48.880;9.276;2023-05-24T00:42:57;122.82;;;114.53;;
16308;SDS011;8263;48.880;9.276;2023-05-24T00:45:23;123.10;;;114.80;;
16308;SDS011;8263;48.880;9.276;2023-05-24T00:47:50;121.20;;;112.97;;
16308;SDS011;8263;48.880;9.276;2023-05-24T00:50:18;121.25;;;113.07;;
16308;SDS011;8263;48.880;9.276;2023-05-24T00:52:45;122.50;;;114.20;;
16308;SDS011;8263;48.880;9.276;2023-05-24T00:55:12;122.20;;;113.88;;
16308;SDS011;8263;48.880;9.276;2023-05-24T00:57:39;122.70;;;114.28;;
16308;SDS011;8263;48.880;9.276;2023-05-24T01:00:06;120.85;;;112.75;;
16308;SDS011;8263;48.880;9.276;2023-05-24T01:02:33;121.28;;;113.15;;
16308;SDS011;8263;48.880;9.276;2023-05-24T01:05:00;122.93;;;114.63;;
16308;SDS011;8263;48.880;9.276;2023-05-24T01:07:29;121.07;;;112.95;;
16308;SDS011;8263;48.880;9.276;2023-05-24T01:10:01;122.03;;;113.65;;
16308;SDS011;8263;48.880;9.276;2023-05-24T01:12:31;123.07;;;114.72;;
16308;SDS011;8263;48.880;9.276;2023-05-24T01:15:00;124.63;;;116.20;;
16308;SDS011;8263;48.880;9.276;2023-05-24T01:17:30;122.75;;;114.35;;
16308;SDS011;8263;48.880;9.276;2023-05-24T01:19:59;123.78;;;115.45;;
16308;SDS011;8263;48.880;9.276;2023-05-24T01:22:51;124.32;;;115.88;;
16308;SDS011;8263;48.880;9.276;2023-05-24T01:25:22;123.28;;;114.88;;
16308;SDS011;8263;48.880;9.276;2023-05-24T01:27:54;122.88;;;114.32;;
16308;SDS011;8263;48.880;9.276;2023-05-24T01:30:21;122.55;;;114.13;;
16308;SDS011;8263;48.880;9.276;2023-05-24T01:32:48;123.38;;;114.93;;
16308;SDS011;8263;48.880;9.276;2023-05-24T01:35:15;123.28;;;114.88;;
16308;SDS011;8263;48.880;9.276;2023-05-24T01:37:41;124.03;;;115.38;;
16308;SDS011;8263;48.880;9.276;2023-05-24T01:40:08;123.88;;;115.45;;
16308;SDS011;8263;48.880;9.276;2023-05-24T01:42:38;125.25;;;116.70;;
16308;SDS011;8263;48.880;9.276;2023-05-24T01:45:11;124.47;;;116.05;;
16308;SDS011;8263;48.880;9.276;2023-05-24T01:47:42;124.50;;;116.05;;
16308;SDS011;8263;48.880;9.276;2023-05-24T01:50:12;125.32;;;116.30;;
16308;SDS011;8263;48.880;9.276;2023-05-24T01:52:41;124.00;;;115.53;;
16308;SDS011;8263;48.880;9.276;2023-05-24T01:55:09;125.40;;;116.90;;
16308;SDS011;8263;48.880;9.276;2023-05-24T01:57:37;124.28;;;115.55;;
16308;SDS011;8263;48.880;9.276;2023-05-24T02:00:05;126.00;;;117.38;;
16308;SDS011;8263;48.880;9.276;2023-05-24T02:02:35;125.90;;;116.93;;
16308;SDS011;8263;48.880;9.276;2023-05-24T02:05:02;123.90;;;115.50;;
16308;SDS011;8263;48.880;9.276;2023-05-24T02:07:29;126.05;;;117.50;;
16308;SDS011;8263;48.880;9.276;2023-05-24T02:09:56;125.50;;;116.90;;
16308;SDS011;8263;48.880;9.276;2023-05-24T02:12:22;123.90;;;115.50;;
16308;SDS011;8263;48.880;9.276;2023-05-24T02:14:48;126.28;;;117.65;;
16308;SDS011;8263;48.880;9.276;2023-05-24T02:17:15;125.13;;;116.60;;
16308;SDS011;8263;48.880;9.276;2023-05-24T02:19:43;124.35;;;115.85;;
16308;SDS011;8263;48.880;9.276;2023-05-24T02:22:10;126.78;;;117.97;;
16308;SDS011;8263;48.880;9.276;2023-05-24T02:24:36;125.57;;;116.97;;
16308;SDS011;8263;48.880;9.276;2023-05-24T02:27:05;125.57;;;116.90;;
16308;SDS011;8263;48.880;9.276;2023-05-24T02:29:31;124.13;;;115.63;;
16308;SDS011;8263;48.880;9.276;2023-05-24T02:31:58;124.85;;;116.35;;
16308;SDS011;8263;48.880;9.276;2023-05-24T02:34:24;123.97;;;115.55;;
16308;SDS011;8263;48.880;9.276;2023-05-24T02:36:52;124.47;;;116.05;;
16308;SDS011;8263;48.880;9.276;2023-05-24T02:39:20;124.22;;;115.80;;
16308;SDS011;8263;48.880;9.276;2023-05-24T02:41:47;124.95;;;116.45;;
16308;SDS011;8263;48.880;9.276;2023-05-24T02:44:14;125.45;;;116.93;;
16308;SDS011;8263;48.880;9.276;2023-05-24T02:46:40;126.65;;;118.05;;
16308;SDS011;8263;48.880;9.276;2023-05-24T02:49:06;125.97;;;117.35;;
16308;SDS011;8263;48.880;9.276;2023-05-24T02:51:34;126.72;;;117.57;;
16308;SDS011;8263;48.880;9.276;2023-05-24T02:54:02;126.20;;;117.60;;
16308;SDS011;8263;48.880;9.276;2023-05-24T02:56:29;126.28;;;117.68;;
16308;SDS011;8263;48.880;9.276;2023-05-24T02:58:55;124.20;;;115.70;;
16308;SDS011;8263;48.880;9.276;2023-05-24T03:01:22;127.38;;;118.53;;
16308;SDS011;8263;48.880;9.276;2023-05-24T03:03:48;127.50;;;118.80;;
16308;SDS011;8263;48.880;9.276;2023-05-24T03:06:14;126.05;;;117.43;;
16308;SDS011;8263;48.880;9.276;2023-05-24T03:08:41;125.80;;;117.20;;
16308;SDS011;8263;48.880;9.276;2023-05-24T03:11:10;127.90;;;119.03;;
16308;SDS011;8263;48.880;9.276;2023-05-24T03:13:36;126.38;;;117.75;;
16308;SDS011;8263;48.880;9.276;2023-05-24T03:16:03;126.85;;;118.15;;
16308;SDS011;8263;48.880;9.276;2023-05-24T03:18:29;127.60;;;118.80;;
16308;SDS011;8263;48.880;9.276;2023-05-24T03:20:56;127.68;;;118.60;;
16308;SDS011;8263;48.880;9.276;2023-05-24T03:23:22;128.75;;;119.95;;
16308;SDS011;8263;48.880;9.276;2023-05-24T03:25:49;126.43;;;117.43;;
16308;SDS011;8263;48.880;9.276;2023-05-24T03:28:17;127.97;;;119.10;;
16308;SDS011;8263;48.880;9.276;2023-05-24T03:30:46;126.35;;;117.65;;
16308;SDS011;8263;48.880;9.276;2023-05-24T03:33:14;127.72;;;119.03;;
16308;SDS011;8263;48.880;9.276;2023-05-24T03:35:40;128.73;;;119.63;;
16308;SDS011;8263;48.880;9.276;2023-05-24T03:38:07;129.02;;;119.72;;
16308;SDS011;8263;48.880;9.276;2023-05-24T03:40:34;125.53;;;116.97;;
16308;SDS011;8263;48.880;9.276;2023-05-24T03:43:01;126.47;;;117.85;;
16308;SDS011;8263;48.880;9.276;2023-05-24T03:45:29;126.78;;;118.07;;
16308;SDS011;8263;48.880;9.276;2023-05-24T03:47:55;129.20;;;120.28;;
16308;SDS011;8263;48.880;9.276;2023-05-24T03:50:22;128.85;;;119.78;;
16308;SDS011;8263;48.880;9.276;2023-05-24T03:52:49;127.57;;;118.78;;
16308;SDS011;8263;48.880;9.276;2023-05-24T03:55:16;128.45;;;119.25;;
16308;SDS011;8263;48.880;9.276;2023-05-24T03:57:42;128.23;;;119.38;;
16308;SDS011;8263;48.880;9.276;2023-05-24T04:00:09;127.50;;;118.50;;
16308;SDS011;8263;48.880;9.276;2023-05-24T04:02:37;129.70;;;120.60;;
16308;SDS011;8263;48.880;9.276;2023-05-24T04:05:04;127.25;;;118.45;;
16308;SDS011;8263;48.880;9.276;2023-05-24T04:07:34;126.18;;;117.47;;
16308;SDS011;8263;48.880;9.276;2023-05-24T04:10:01;127.72;;;118.85;;
16308;SDS011;8263;48.880;9.276;2023-05-24T04:12:27;126.85;;;118.00;;
16308;SDS011;8263;48.880;9.276;2023-05-24T04:14:53;129.55;;;120.45;;
16308;SDS011;8263;48.880;9.276;2023-05-24T04:17:20;127.07;;;118.10;;
16308;SDS011;8263;48.880;9.276;2023-05-24T04:19:50;126.30;;;117.22;;
16308;SDS011;8263;48.880;9.276;2023-05-24T04:22:16;127.35;;;118.57;;
16308;SDS011;8263;48.880;9.276;2023-05-24T04:24:43;128.63;;;119.72;;
16308;SDS011;8263;48.880;9.276;2023-05-24T04:27:09;127.55;;;118.70;;
16308;SDS011;8263;48.880;9.276;2023-05-24T04:29:37;128.85;;;119.95;;
16308;SDS011;8263;48.880;9.276;2023-05-24T04:32:04;128.65;;;119.68;;
16308;SDS011;8263;48.880;9.276;2023-05-24T04:34:31;129.25;;;120.32;;
16308;SDS011;8263;48.880;9.276;2023-05-24T04:36:59;128.13;;;119.22;;
16308;SDS011;8263;48.880;9.276;2023-05-24T04:39:26;130.23;;;119.97;;
16308;SDS011;8263;48.880;9.276;2023-05-24T04:41:52;130.40;;;121.38;;
16308;SDS011;8263;48.880;9.276;2023-05-24T04:44:20;128.68;;;119.82;;
16308;SDS011;8263;48.880;9.276;2023-05-24T04:46:46;129.85;;;120.75;;
16308;SDS011;8263;48.880;9.276;2023-05-24T04:49:13;129.40;;;120.30;;
16308;SDS011;8263;48.880;9.276;2023-05-24T04:51:39;127.28;;;118.55;;
16308;SDS011;8263;48.880;9.276;2023-05-24T04:54:07;129.63;;;120.65;;
16308;SDS011;8263;48.880;9.276;2023-05-24T04:56:34;129.68;;;120.57;;
16308;SDS011;8263;48.880;9.276;2023-05-24T04:59:02;131.32;;;121.78;;
16308;SDS011;8263;48.880;9.276;2023-05-24T05:01:29;131.32;;;121.90;;
16308;SDS011;8263;48.880;9.276;2023-05-24T05:03:56;131.43;;;121.72;;
16308;SDS011;8263;48.880;9.276;2023-05-24T05:06:22;130.88;;;121.78;;
16308;SDS011;8263;48.880;9.276;2023-05-24T05:08:49;125.60;;;117.00;;
16308;SDS011;8263;48.880;9.276;2023-05-24T05:11:18;131.43;;;121.97;;
16308;SDS011;8263;48.880;9.276;2023-05-24T05:13:45;130.27;;;121.22;;
16308;SDS011;8263;48.880;9.276;2023-05-24T05:16:11;131.65;;;121.60;;
16308;SDS011;8263;48.880;9.276;2023-05-24T05:18:38;131.55;;;122.32;;
16308;SDS011;8263;48.880;9.276;2023-05-24T05:21:05;130.35;;;121.10;;
16308;SDS011;8263;48.880;9.276;2023-05-24T05:23:31;130.40;;;121.40;;
16308;SDS011;8263;48.880;9.276;2023-05-24T05:25:58;129.52;;;120.18;;
16308;SDS011;8263;48.880;9.276;2023-05-24T05:28:26;130.35;;;121.25;;
16308;SDS011;8263;48.880;9.276;2023-05-24T05:30:53;129.93;;;120.93;;
16308;SDS011;8263;48.880;9.276;2023-05-24T05:33:20;129.25;;;120.35;;
16308;SDS011;8263;48.880;9.276;2023-05-24T05:35:47;129.48;;;120.50;;
16308;SDS011;8263;48.880;9.276;2023-05-24T05:38:13;129.18;;;120.18;;
16308;SDS011;8263;48.880;9.276;2023-05-24T05:40:40;130.60;;;121.30;;
16308;SDS011;8263;48.880;9.276;2023-05-24T05:43:07;128.80;;;119.88;;
16308;SDS011;8263;48.880;9.276;2023-05-24T05:45:35;127.40;;;118.55;;
16308;SDS011;8263;48.880;9.276;2023-05-24T05:48:01;131.27;;;121.97;;
16308;SDS011;8263;48.880;9.276;2023-05-24T05:50:28;129.70;;;120.70;;
16308;SDS011;8263;48.880;9.276;2023-05-24T05:52:54;129.32;;;120.13;;
16308;SDS011;8263;48.880;9.276;2023-05-24T05:55:22;126.57;;;117.75;;
16308;SDS011;8263;48.880;9.276;2023-05-24T05:57:48;129.18;;;120.22;;
16308;SDS011;8263;48.880;9.276;2023-05-24T06:00:15;131.57;;;122.25;;
16308;SDS011;8263;48.880;9.276;2023-05-24T06:02:43;127.82;;;119.00;;
16308;SDS011;8263;48.880;9.276;2023-05-24T06:05:10;130.98;;;121.88;;
16308;SDS011;8263;48.880;9.276;2023-05-24T06:07:36;129.20;;;120.13;;
16308;SDS011;8263;48.880;9.276;2023-05-24T06:10:03;128.73;;;119.78;;
16308;SDS011;8263;48.880;9.276;2023-05-24T06:12:30;130.02;;;121.00;;
16308;SDS011;8263;48.880;9.276;2023-05-24T06:14:57;128.77;;;119.85;;
16308;SDS011;8263;48.880;9.276;2023-05-24T06:17:23;131.30;;;122.15;;
16308;SDS011;8263;48.880;9.276;2023-05-24T06:19:51;128.90;;;119.95;;
16308;SDS011;8263;48.880;9.276;2023-05-24T06:22:19;128.25;;;119.40;;
16308;SDS011;8263;48.880;9.276;2023-05-24T06:24:46;129.05;;;120.13;;
16308;SDS011;8263;48.880;9.276;2023-05-24T06:27:13;130.50;;;121.13;;
16308;SDS011;8263;48.880;9.276;2023-05-24T06:29:40;127.80;;;118.95;;
16308;SDS011;8263;48.880;9.276;2023-05-24T06:32:06;128.20;;;119.20;;
16308;SDS011;8263;48.880;9.276;2023-05-24T06:34:33;130.07;;;121.07;;
16308;SDS011;8263;48.880;9.276;2023-05-24T06:37:02;129.38;;;120.43;;
16308;SDS011;8263;48.880;9.276;2023-05-24T06:39:28;129.50;;;120.50;;
16308;SDS011;8263;48.880;9.276;2023-05-24T06:41:55;129.55;;;120.40;;
16308;SDS011;8263;48.880;9.276;2023-05-24T06:44:21;129.45;;;120.35;;
16308;SDS011;8263;48.880;9.276;2023-05-24T06:46:54;126.75;;;118.03;;
16308;SDS011;8263;48.880;9.276;2023-05-24T06:49:21;129.32;;;120.13;;
16308;SDS011;8263;48.880;9.276;2023-05-24T06:51:48;129.98;;;120.72;;
16308;SDS011;8263;48.880;9.276;2023-05-24T06:54:16;129.52;;;120.53;;
16308;SDS011;8263;48.880;9.276;2023-05-24T06:56:43;128.23;;;119.35;;
16308;SDS011;8263;48.880;9.276;2023-05-24T06:59:10;129.45;;;120.45;;
16308;SDS011;8263;48.880;9.276;2023-05-24T07:01:36;129.30;;;120.10;;
16308;SDS011;8263;48.880;9.276;2023-05-24T07:04:03;129.18;;;120.15;;
16308;SDS011;8263;48.880;9.276;2023-05-24T07:06:30;131.32;;;121.75;;
16308;SDS011;8263;48.880;9.276;2023-05-24T07:08:57;128.10;;;119.20;;
16308;SDS011;8263;48.880;9.276;2023-05-24T07:11:27;129.80;;;120.82;;
16308;SDS011;8263;48.880;9.276;2023-05-24T07:13:53;127.72;;;118.82;;
16308;SDS011;8263;48.880;9.276;2023-05-24T07:16:20;128.32;;;119.43;;
16308;SDS011;8263;48.880;9.276;2023-05-24T07:18:47;128.35;;;119.53;;
16308;SDS011;8263;48.880;9.276;2023-05-24T07:21:13;130.02;;;120.97;;
16308;SDS011;8263;48.880;9.276;2023-05-24T07:23:40;130.00;;;120.72;;
16308;SDS011;8263;48.880;9.276;2023-05-24T07:26:06;126.72;;;117.97;;
16308;SDS011;8263;48.880;9.276;2023-05-24T07:28:35;130.27;;;120.88;;
16308;SDS011;8263;48.880;9.276;2023-05-24T07:31:04;130.05;;;121.05;;
16308;SDS011;8263;48.880;9.276;2023-05-24T07:33:32;129.35;;;120.25;;
16308;SDS011;8263;48.880;9.276;2023-05-24T07:35:58;130.23;;;121.22;;
16308;SDS011;8263;48.880;9.276;2023-05-24T07:38:25;129.77;;;120.85;;
16308;SDS011;8263;48.880;9.276;2023-05-24T07:40:53;129.82;;;120.72;;
16308;SDS011;8263;48.880;9.276;2023-05-24T07:43:20;128.27;;;119.43;;
16308;SDS011;8263;48.880;9.276;2023-05-24T07:45:48;129.45;;;120.43;;
16308;SDS011;8263;48.880;9.276;2023-05-24T07:48:14;129.82;;;120.63;;
16308;SDS011;8263;48.880;9.276;2023-05-24T07:50:41;127.40;;;118.45;;
16308;SDS011;8263;48.880;9.276;2023-05-24T07:53:12;130.52;;;121.40;;
16308;SDS011;8263;48.880;9.276;2023-05-24T07:55:39;129.45;;;120.45;;
16308;SDS011;8263;48.880;9.276;2023-05-24T07:58:05;130.68;;;121.50;;
16308;SDS011;8263;48.880;9.276;2023-05-24T08:00:31;130.43;;;121.32;;
16308;SDS011;8263;48.880;9.276;2023-05-24T08:03:00;131.10;;;121.75;;
16308;SDS011;8263;48.880;9.276;2023-05-24T08:05:27;132.18;;;122.68;;
16308;SDS011;8263;48.880;9.276;2023-05-24T08:07:55;129.82;;;120.75;;
16308;SDS011;8263;48.880;9.276;2023-05-24T08:10:22;130.85;;;121.65;;
16308;SDS011;8263;48.880;9.276;2023-05-24T08:12:49;129.18;;;120.28;;
16308;SDS011;8263;48.880;9.276;2023-05-24T08:15:18;127.22;;;118.47;;
16308;SDS011;8263;48.880;9.276;2023-05-24T08:17:45;128.68;;;119.80;;
16308;SDS011;8263;48.880;9.276;2023-05-24T08:20:13;133.15;;;122.78;;
16308;SDS011;8263;48.880;9.276;2023-05-24T08:22:41;131.70;;;122.50;;
16308;SDS011;8263;48.880;9.276;2023-05-24T08:25:08;131.32;;;122.13;;
16308;SDS011;8263;48.880;9.276;2023-05-24T08:27:34;130.05;;;121.05;;
16308;SDS011;8263;48.880;9.276;2023-05-24T08:30:01;131.80;;;122.60;;
16308;SDS011;8263;48.880;9.276;2023-05-24T08:32:28;131.65;;;122.38;;
16308;SDS011;8263;48.880;9.276;2023-05-24T08:34:56;131.70;;;122.22;;
16308;SDS011;8263;48.880;9.276;2023-05-24T08:37:24;130.77;;;121.72;;
16308;SDS011;8263;48.880;9.276;2023-05-24T08:39:51;129.98;;;120.97;;
16308;SDS011;8263;48.880;9.276;2023-05-24T08:42:17;128.93;;;120.03;;
16308;SDS011;8263;48.880;9.276;2023-05-24T08:44:46;129.57;;;119.97;;
16308;SDS011;8263;48.880;9.276;2023-05-24T08:47:13;127.32;;;118.60;;
16308;SDS011;8263;48.880;9.276;2023-05-24T08:49:39;127.82;;;119.03;;
16308;SDS011;8263;48.880;9.276;2023-05-24T08:52:06;128.25;;;119.20;;
16308;SDS011;8263;48.880;9.276;2023-05-24T08:54:35;129.40;;;120.30;;
16308;SDS011;8263;48.880;9.276;2023-05-24T08:57:03;129.35;;;120.25;;
16308;SDS011;8263;48.880;9.276;2023-05-24T08:59:29;129.60;;;120.60;;
16308;SDS011;8263;48.880;9.276;2023-05-24T09:01:56;130.25;;;121.20;;
16308;SDS011;8263;48.880;9.276;2023-05-24T09:04:23;129.98;;;120.78;;
16308;SDS011;8263;48.880;9.276;2023-05-24T09:06:50;130.27;;;121.28;;
16308;SDS011;8263;48.880;9.276;2023-05-24T09:09:17;127.63;;;118.85;;
16308;SDS011;8263;48.880;9.276;2023-05-24T09:11:48;129.98;;;120.95;;
16308;SDS011;8263;48.880;9.276;2023-05-24T09:14:17;128.45;;;119.63;;
16308;SDS011;8263;48.880;9.276;2023-05-24T09:16:43;129.02;;;120.13;;
16308;SDS011;8263;48.880;9.276;2023-05-24T09:19:12;130.30;;;121.20;;
16308;SDS011;8263;48.880;9.276;2023-05-24T09:21:39;129.27;;;120.38;;
16308;SDS011;8263;48.880;9.276;2023-05-24T09:24:06;129.75;;;120.75;;
16308;SDS011;8263;48.880;9.276;2023-05-24T09:26:34;126.40;;;117.75;;
16308;SDS011;8263;48.880;9.276;2023-05-24T09:29:02;127.82;;;119.00;;
16308;SDS011;8263;48.880;9.276;2023-05-24T09:31:32;128.63;;;119.47;;
16308;SDS011;8263;48.880;9.276;2023-05-24T09:33:59;129.32;;;120.43;;
16308;SDS011;8263;48.880;9.276;2023-05-24T09:36:25;127.72;;;118.93;;
16308;SDS011;8263;48.880;9.276;2023-05-24T09:39:01;130.48;;;121.32;;
16308;SDS011;8263;48.880;9.276;2023-05-24T09:41:31;128.30;;;119.05;;
16308;SDS011;8263;48.880;9.276;2023-05-24T09:43:57;128.35;;;119.53;;
16308;SDS011;8263;48.880;9.276;2023-05-24T09:46:26;127.45;;;118.40;;
16308;SDS011;8263;48.880;9.276;2023-05-24T09:48:56;128.68;;;119.65;;
16308;SDS011;8263;48.880;9.276;2023-05-24T09:51:23;126.85;;;118.15;;
16308;SDS011;8263;48.880;9.276;2023-05-24T09:54:02;127.80;;;118.95;;
16308;SDS011;8263;48.880;9.276;2023-05-24T09:56:29;130.10;;;121.00;;
16308;SDS011;8263;48.880;9.276;2023-05-24T09:59:03;130.27;;;121.05;;
16308;SDS011;8263;48.880;9.276;2023-05-24T10:01:32;129.52;;;120.53;;
16308;SDS011;8263;48.880;9.276;2023-05-24T10:03:59;127.47;;;118.68;;
16308;SDS011;8263;48.880;9.276;2023-05-24T10:06:30;126.30;;;117.57;;
16308;SDS011;8263;48.880;9.276;2023-05-24T10:09:01;126.95;;;118.07;;
16308;SDS011;8263;48.880;9.276;2023-05-24T10:11:29;127.38;;;118.57;;
16308;SDS011;8263;48.880;9.276;2023-05-24T10:13:55;125.72;;;117.03;;
16308;SDS011;8263;48.880;9.276;2023-05-24T10:16:22;130.88;;;120.30;;
16308;SDS011;8263;48.880;9.276;2023-05-24T10:18:50;127.35;;;118.63;;
16308;SDS011;8263;48.880;9.276;2023-05-24T10:21:18;128.15;;;119.35;;
16308;SDS011;8263;48.880;9.276;2023-05-24T10:23:48;129.15;;;120.03;;
16308;SDS011;8263;48.880;9.276;2023-05-24T10:26:16;128.13;;;119.30;;
16308;SDS011;8263;48.880;9.276;2023-05-24T10:28:43;126.63;;;117.90;;
16308;SDS011;8263;48.880;9.276;2023-05-24T10:31:11;124.45;;;115.88;;
16308;SDS011;8263;48.880;9.276;2023-05-24T10:33:39;126.75;;;118.00;;
16308;SDS011;8263;48.880;9.276;2023-05-24T10:36:11;127.32;;;118.28;;
16308;SDS011;8263;48.880;9.276;2023-05-24T10:38:40;128.50;;;119.68;;
16308;SDS011;8263;48.880;9.276;2023-05-24T10:41:06;128.10;;;119.25;;
16308;SDS011;8263;48.880;9.276;2023-05-24T10:43:33;128.23;;;119.43;;
16308;SDS011;8263;48.880;9.276;2023-05-24T10:46:00;128.55;;;119.40;;
16308;SDS011;8263;48.880;9.276;2023-05-24T10:48:31;126.20;;;117.43;;
16308;SDS011;8263;48.880;9.276;2023-05-24T10:50:59;129.27;;;120.28;;
16308;SDS011;8263;48.880;9.276;2023-05-24T10:53:27;128.13;;;119.25;;
16308;SDS011;8263;48.880;9.276;2023-05-24T10:55:54;129.77;;;119.82;;
16308;SDS011;8263;48.880;9.276;2023-05-24T10:58:22;127.15;;;118.45;;
16308;SDS011;8263;48.880;9.276;2023-05-24T11:00:54;127.68;;;118.88;;
16308;SDS011;8263;48.880;9.276;2023-05-24T11:03:21;128.75;;;119.85;;
16308;SDS011;8263;48.880;9.276;2023-05-24T11:05:51;126.53;;;117.80;;
16308;SDS011;8263;48.880;9.276;2023-05-24T11:08:22;127.45;;;118.65;;
16308;SDS011;8263;48.880;9.276;2023-05-24T11:10:50;130.55;;;120.72;;
16308;SDS011;8263;48.880;9.276;2023-05-24T11:13:17;126.63;;;117.85;;
16308;SDS011;8263;48.880;9.276;2023-05-24T11:15:48;126.80;;;117.72;;
16308;SDS011;8263;48.880;9.276;2023-05-24T11:18:16;128.80;;;119.90;;
16308;SDS011;8263;48.880;9.276;2023-05-24T11:20:44;128.43;;;119.53;;
16308;SDS011;8263;48.880;9.276;2023-05-24T11:23:12;125.70;;;117.10;;
16308;SDS011;8263;48.880;9.276;2023-05-24T11:25:40;127.53;;;118.75;;
16308;SDS011;8263;48.880;9.276;2023-05-24T11:28:08;126.53;;;117.70;;
16308;SDS011;8263;48.880;9.276;2023-05-24T11:30:38;129.60;;;120.70;;
16308;SDS011;8263;48.880;9.276;2023-05-24T11:33:04;126.97;;;118.20;;
16308;SDS011;8263;48.880;9.276;2023-05-24T11:35:31;128.25;;;119.35;;
16308;SDS011;8263;48.880;9.276;2023-05-24T11:37:57;128.65;;;119.60;;
16308;SDS011;8263;48.880;9.276;2023-05-24T11:40:24;125.68;;;117.00;;
16308;SDS011;8263;48.880;9.276;2023-05-24T11:42:51;125.90;;;117.25;;
16308;SDS011;8263;48.880;9.276;2023-05-24T11:45:19;127.78;;;118.95;;
16308;SDS011;8263;48.880;9.276;2023-05-24T11:47:47;126.18;;;117.45;;
16308;SDS011;8263;48.880;9.276;2023-05-24T11:50:14;128.02;;;119.15;;
16308;SDS011;8263;48.880;9.276;2023-05-24T11:52:41;125.85;;;117.15;;
16308;SDS011;8263;48.880;9.276;2023-05-24T11:55:10;126.07;;;117.30;;
16308;SDS011;8263;48.880;9.276;2023-05-24T11:57:38;122.43;;;114.03;;
16308;SDS011;8263;48.880;9.276;2023-05-24T12:00:09;125.60;;;117.00;;
16308;SDS011;8263;48.880;9.276;2023-05-24T12:02:43;126.15;;;117.45;;
16308;SDS011;8263;48.880;9.276;2023-05-24T12:05:10;125.30;;;116.45;;
16308;SDS011;8263;48.880;9.276;2023-05-24T12:07:38;126.43;;;117.65;;
16308;SDS011;8263;48.880;9.276;2023-05-24T12:10:05;123.13;;;114.65;;
16308;SDS011;8263;48.880;9.276;2023-05-24T12:12:32;125.35;;;116.82;;
16308;SDS011;8263;48.880;9.276;2023-05-24T12:14:58;124.65;;;116.15;;
16308;SDS011;8263;48.880;9.276;2023-05-24T12:17:25;122.22;;;113.93;;
16308;SDS011;8263;48.880;9.276;2023-05-24T12:19:54;123.15;;;114.82;;
16308;SDS011;8263;48.880;9.276;2023-05-24T12:22:25;124.15;;;115.55;;
16308;SDS011;8263;48.880;9.276;2023-05-24T12:24:52;120.53;;;112.35;;
16308;SDS011;8263;48.880;9.276;2023-05-24T12:27:19;121.93;;;113.53;;
16308;SDS011;8263;48.880;9.276;2023-05-24T12:29:48;123.63;;;115.22;;
16308;SDS011;8263;48.880;9.276;2023-05-24T12:32:15;122.63;;;113.93;;
16308;SDS011;8263;48.880;9.276;2023-05-24T12:34:43;123.32;;;114.63;;
16308;SDS011;8263;48.880;9.276;2023-05-24T12:37:11;121.95;;;113.75;;
16308;SDS011;8263;48.880;9.276;2023-05-24T12:39:38;117.95;;;109.97;;
16308;SDS011;8263;48.880;9.276;2023-05-24T12:42:06;123.03;;;114.72;;
16308;SDS011;8263;48.880;9.276;2023-05-24T12:44:33;117.15;;;109.35;;
16308;SDS011;8263;48.880;9.276;2023-05-24T12:47:01;118.95;;;110.97;;
16308;SDS011;8263;48.880;9.276;2023-05-24T12:49:28;119.63;;;111.38;;
16308;SDS011;8263;48.880;9.276;2023-05-24T12:51:54;120.78;;;112.68;;
16308;SDS011;8263;48.880;9.276;2023-05-24T12:54:24;117.63;;;109.80;;
16308;SDS011;8263;48.880;9.276;2023-05-24T12:56:51;117.75;;;109.90;;
16308;SDS011;8263;48.880;9.276;2023-05-24T12:59:18;118.15;;;110.15;;
16308;SDS011;8263;48.880;9.276;2023-05-24T13:01:45;118.68;;;110.63;;
16308;SDS011;8263;48.880;9.276;2023-05-24T13:04:15;119.93;;;111.85;;
16308;SDS011;8263;48.880;9.276;2023-05-24T13:06:42;116.00;;;108.28;;
16308;SDS011;8263;48.880;9.276;2023-05-24T13:09:09;118.70;;;110.78;;
16308;SDS011;8263;48.880;9.276;2023-05-24T13:11:37;118.00;;;110.00;;
16308;SDS011;8263;48.880;9.276;2023-05-24T13:14:04;116.70;;;108.93;;
16308;SDS011;8263;48.880;9.276;2023-05-24T13:16:31;116.35;;;108.35;;
16308;SDS011;8263;48.880;9.276;2023-05-24T13:18:59;117.03;;;109.03;;
16308;SDS011;8263;48.880;9.276;2023-05-24T13:21:26;117.05;;;109.28;;
16308;SDS011;8263;48.880;9.276;2023-05-24T13:23:53;118.07;;;109.93;;
16308;SDS011;8263;48.880;9.276;2023-05-24T13:26:19;116.32;;;108.53;;
16308;SDS011;8263;48.880;9.276;2023-05-24T13:28:49;116.47;;;108.38;;
16308;SDS011;8263;48.880;9.276;2023-05-24T13:31:16;117.07;;;109.28;;
16308;SDS011;8263;48.880;9.276;2023-05-24T13:33:43;116.88;;;109.10;;
16308;SDS011;8263;48.880;9.276;2023-05-24T13:36:09;114.13;;;106.22;;
16308;SDS011;8263;48.880;9.276;2023-05-24T13:38:36;115.03;;;107.38;;
16308;SDS011;8263;48.880;9.276;2023-05-24T13:41:03;113.80;;;106.20;;
16308;SDS011;8263;48.880;9.276;2023-05-24T13:43:29;114.90;;;107.25;;
16308;SDS011;8263;48.880;9.276;2023-05-24T13:45:58;112.88;;;105.38;;
16308;SDS011;8263;48.880;9.276;2023-05-24T13:48:25;114.45;;;106.85;;
16308;SDS011;8263;48.880;9.276;2023-05-24T13:50:52;116.72;;;109.03;;
16308;SDS011;8263;48.880;9.276;2023-05-24T13:53:18;113.93;;;106.38;;
16308;SDS011;8263;48.880;9.276;2023-05-24T13:55:46;112.80;;;105.40;;
16308;SDS011;8263;48.880;9.276;2023-05-24T13:58:12;114.00;;;106.45;;
16308;SDS011;8263;48.880;9.276;2023-05-24T14:00:39;112.55;;;105.05;;
16308;SDS011;8263;48.880;9.276;2023-05-24T14:03:08;111.68;;;104.32;;
16308;SDS011;8263;48.880;9.276;2023-05-24T14:05:36;113.60;;;106.05;;
16308;SDS011;8263;48.880;9.276;2023-05-24T14:08:05;113.50;;;106.00;;
16308;SDS011;8263;48.880;9.276;2023-05-24T14:10:32;112.00;;;104.50;;